Terminal Aerodrome Forecast
Issued by NWS

Home | Current Version | Previous Version | Text Only | Print | Product List | Glossary On
Versions: 1 2 3 4 5 6 7 8 9 10 11 12 13 14 15 16 17 18 19 20
000
FTUS46 KMFR 191756
TAFLMT
TAF
KLMT 191756Z 1918/2018 07003KT P6SM VCSH OVC070
     FM200600 18008KT 5SM -SN BR BKN025 OVC040
     FM201200 18015G25KT 3SM RASN OVC025=

USA.gov is the U.S. government's official web portal to all federal, state and local government web resources and services.